createdAt,value
2017-08-08T00:00:43.457Z,31
2017-08-08T00:01:45.151Z,31.1
2017-08-08T00:02:41.785Z,31.1
2017-08-08T00:03:41.665Z,31.1
2017-08-08T00:04:41.966Z,31.1
2017-08-08T00:05:44.065Z,31.1
2017-08-08T00:06:41.897Z,31.1
2017-08-08T00:07:45.294Z,31.1
2017-08-08T00:08:42.024Z,31.1
2017-08-08T00:09:45.349Z,31.1
2017-08-08T00:10:45.626Z,31.1
2017-08-08T00:11:44.258Z,31.1
2017-08-08T00:12:42.193Z,31.1
2017-08-08T00:13:45.694Z,31.1
2017-08-08T00:14:44.386Z,31.1
2017-08-08T00:15:45.827Z,31.1
2017-08-08T00:16:45.692Z,31.1
2017-08-08T00:17:42.686Z,31.1
2017-08-08T00:18:45.809Z,31.1
2017-08-08T00:19:46.030Z,31.1
2017-08-08T00:20:42.564Z,31.1
2017-08-08T00:21:42.817Z,31.1
2017-08-08T00:22:42.885Z,31.1
2017-08-08T00:23:45.137Z,31.1
2017-08-08T00:24:42.980Z,31.1
2017-08-08T00:25:42.854Z,31.1
2017-08-08T00:26:46.468Z,31.1
2017-08-08T00:27:42.969Z,31.1
2017-08-08T00:28:43.269Z,31.1
2017-08-08T00:29:43.331Z,31.1
2017-08-08T00:30:43.321Z,31.1
2017-08-08T00:31:43.340Z,31.1
2017-08-08T00:32:43.375Z,31.1
2017-08-08T00:33:43.451Z,31.1
2017-08-08T00:34:46.657Z,31.1
2017-08-08T00:35:43.844Z,31.1
2017-08-08T00:36:43.428Z,31.1
2017-08-08T00:37:47.012Z,31.1
2017-08-08T00:38:43.570Z,31.1
2017-08-08T00:39:43.826Z,31.1
2017-08-08T00:40:47.168Z,31.1
2017-08-08T00:41:47.592Z,31.1
2017-08-08T00:42:47.056Z,31.1
2017-08-08T00:43:44.032Z,31.1
2017-08-08T00:44:43.834Z,31.1
2017-08-08T00:45:44.095Z,31.1
2017-08-08T00:46:47.267Z,31.1
2017-08-08T00:47:46.403Z,31.1
2017-08-08T00:48:47.444Z,31.1
2017-08-08T00:49:47.686Z,31.1
2017-08-08T00:50:46.185Z,31.1
2017-08-08T00:51:47.629Z,31.1
2017-08-08T00:52:46.489Z,31.1
2017-08-08T00:53:44.633Z,31.1
2017-08-08T00:54:44.514Z,31.1
2017-08-08T00:55:44.778Z,31.1
2017-08-08T00:56:46.579Z,31.1
2017-08-08T00:57:46.890Z,31.1
2017-08-08T00:58:48.167Z,31.1
2017-08-08T00:59:44.910Z,31.1
2017-08-08T01:00:45.691Z,31.1
2017-08-08T01:01:45.198Z,31.1
2017-08-08T01:02:45.194Z,31.1
2017-08-08T01:03:45.242Z,31.1
2017-08-08T01:04:45.132Z,31.1
2017-08-08T01:05:47.128Z,31.1
2017-08-08T01:06:47.439Z,31.1
2017-08-08T01:07:45.401Z,31.1
2017-08-08T01:08:45.636Z,31.1
2017-08-08T01:09:47.434Z,31.2
2017-08-08T01:10:47.751Z,31.2
2017-08-08T01:11:47.605Z,31.1
2017-08-08T01:12:45.750Z,31.2
2017-08-08T01:13:45.953Z,31.1
2017-08-08T01:14:49.384Z,31.1
2017-08-08T01:15:45.925Z,31.2
2017-08-08T01:16:46.183Z,31.2
2017-08-08T01:17:49.392Z,31.2
2017-08-08T01:18:46.419Z,31.2
2017-08-08T01:19:48.324Z,31.2
2017-08-08T01:20:46.393Z,31.1
2017-08-08T01:21:46.488Z,31.1
2017-08-08T01:22:46.507Z,31.2
2017-08-08T01:23:48.197Z,31.2
2017-08-08T01:24:46.571Z,31.2
2017-08-08T01:25:48.326Z,31.2
2017-08-08T01:26:48.490Z,31.2
2017-08-08T01:27:49.739Z,31.2
2017-08-08T01:28:46.419Z,31.2
2017-08-08T01:29:46.725Z,31.2
2017-08-08T01:30:46.724Z,31.2
2017-08-08T01:31:46.793Z,31.2
2017-08-08T01:32:46.597Z,31.1
2017-08-08T01:33:46.587Z,31.2
2017-08-08T01:34:46.645Z,31.2
2017-08-08T01:35:46.964Z,31.2
2017-08-08T01:36:46.984Z,31.2
2017-08-08T01:37:50.213Z,31.2
2017-08-08T01:38:46.887Z,31.2
2017-08-08T01:39:47.174Z,31.1
2017-08-08T01:40:49.099Z,31.2
2017-08-08T01:41:47.224Z,31.2
2017-08-08T01:42:49.008Z,31.2
2017-08-08T01:43:50.441Z,31.2
2017-08-08T01:44:47.161Z,31.2
2017-08-08T01:45:47.237Z,31.2
2017-08-08T01:46:49.428Z,31.2
2017-08-08T01:47:47.397Z,31.2
2017-08-08T01:48:51.009Z,31.2
2017-08-08T01:49:51.094Z,31.2
2017-08-08T01:50:47.833Z,31.2
2017-08-08T01:51:47.839Z,31.1
2017-08-08T01:52:51.199Z,31.1
2017-08-08T01:53:47.752Z,31.2
2017-08-08T01:54:49.726Z,31.2
2017-08-08T01:55:47.916Z,31.2
2017-08-08T01:56:48.210Z,31.2
2017-08-08T01:57:48.081Z,31.2
2017-08-08T01:58:50.380Z,31.2
2017-08-08T01:59:48.493Z,31.2
2017-08-08T02:00:48.567Z,31.2
2017-08-08T02:01:48.668Z,31.2
2017-08-08T02:02:48.511Z,31.2
2017-08-08T02:03:48.662Z,31.2
2017-08-08T02:04:51.860Z,31.2
2017-08-08T02:05:52.130Z,31.2
2017-08-08T02:06:48.857Z,31.2
2017-08-08T02:07:50.675Z,31.2
2017-08-08T02:08:50.904Z,31.2
2017-08-08T02:09:48.993Z,31.2
2017-08-08T02:10:48.851Z,31.2
2017-08-08T02:11:52.252Z,31.2
2017-08-08T02:12:49.022Z,31.2
2017-08-08T02:13:51.276Z,31.2
2017-08-08T02:14:49.336Z,31.2
2017-08-08T02:15:49.445Z,31.2
2017-08-08T02:16:49.524Z,31.2
2017-08-08T02:17:52.695Z,31.2
2017-08-08T02:18:49.375Z,31.2
2017-08-08T02:19:52.961Z,31.2
2017-08-08T02:20:52.851Z,31.2
2017-08-08T02:21:51.826Z,31.2
2017-08-08T02:22:53.118Z,31.2
2017-08-08T02:23:49.859Z,31.2
2017-08-08T02:24:53.365Z,31.2
2017-08-08T02:25:49.870Z,31.2
2017-08-08T02:26:53.293Z,31.2
2017-08-08T02:27:49.855Z,31.2
2017-08-08T02:28:50.107Z,31.2
2017-08-08T02:29:52.125Z,31.2
2017-08-08T02:30:50.514Z,31.2
2017-08-08T02:31:50.192Z,31.2
2017-08-08T02:32:50.350Z,31.2
2017-08-08T02:33:53.819Z,31.2
2017-08-08T02:34:53.818Z,31.2
2017-08-08T02:35:54.385Z,31.2
2017-08-08T02:36:50.591Z,31.2
2017-08-08T02:37:54.033Z,31.2
2017-08-08T02:38:50.520Z,31.2
2017-08-08T02:39:50.634Z,31.2
2017-08-08T02:40:52.683Z,31.2
2017-08-08T02:41:50.582Z,31.2
2017-08-08T02:42:53.950Z,31.2
2017-08-08T02:43:50.666Z,31.2
2017-08-08T02:44:50.922Z,31.2
2017-08-08T02:45:52.898Z,31.3
2017-08-08T02:46:52.782Z,31.2
2017-08-08T02:47:51.089Z,31.3
2017-08-08T02:48:54.516Z,31.3
2017-08-08T02:49:52.925Z,31.3
2017-08-08T02:50:52.938Z,31.2
2017-08-08T02:51:51.255Z,31.2
2017-08-08T02:52:54.695Z,31.3
2017-08-08T02:53:54.677Z,31.3
2017-08-08T02:54:51.237Z,31.3
2017-08-08T02:55:54.828Z,31.3
2017-08-08T02:56:51.586Z,31.3
2017-08-08T02:57:53.305Z,31.3
2017-08-08T02:58:55.050Z,31.3
2017-08-08T02:59:53.429Z,31.3
2017-08-08T03:00:55.204Z,31.3
2017-08-08T03:01:54.048Z,31.3
2017-08-08T03:02:52.862Z,31.3
2017-08-08T03:03:52.272Z,31.3
2017-08-08T03:04:52.092Z,31.3
2017-08-08T03:05:53.842Z,31.3
2017-08-08T03:06:52.196Z,31.3
2017-08-08T03:07:55.448Z,31.3
2017-08-08T03:08:53.897Z,31.3
2017-08-08T03:09:55.732Z,31.3
2017-08-08T03:10:53.269Z,31.3
2017-08-08T03:11:54.502Z,31.3
2017-08-08T03:12:55.184Z,31.3
2017-08-08T03:13:55.865Z,31.3
2017-08-08T03:14:55.835Z,31.3
2017-08-08T03:15:54.547Z,31.3
2017-08-08T03:16:54.342Z,31.3
2017-08-08T03:17:55.819Z,31.3
2017-08-08T03:18:56.077Z,31.3
2017-08-08T03:19:56.169Z,31.3
2017-08-08T03:20:52.651Z,31.3
2017-08-08T03:21:52.859Z,31.3
2017-08-08T03:22:52.942Z,31.3
2017-08-08T03:23:52.735Z,31.3
2017-08-08T03:24:52.774Z,31.3
2017-08-08T03:25:52.919Z,31.3
2017-08-08T03:26:52.795Z,31.3
2017-08-08T03:27:55.030Z,31.3
2017-08-08T03:28:52.966Z,31.3
2017-08-08T03:29:53.018Z,31.3
2017-08-08T03:30:55.202Z,31.3
2017-08-08T03:31:55.275Z,31.3
2017-08-08T03:32:53.200Z,31.3
2017-08-08T03:33:53.221Z,31.3
2017-08-08T03:34:55.052Z,31.3
2017-08-08T03:35:55.081Z,31.3
2017-08-08T03:36:53.261Z,31.3
2017-08-08T03:37:53.315Z,31.3
2017-08-08T03:38:55.399Z,31.3
2017-08-08T03:39:55.479Z,31.3
2017-08-08T03:40:57.118Z,31.3
2017-08-08T03:41:53.903Z,31.3
2017-08-08T03:42:53.927Z,31.3
2017-08-08T03:43:53.727Z,31.3
2017-08-08T03:44:53.966Z,31.3
2017-08-08T03:45:55.959Z,31.3
2017-08-08T03:46:57.469Z,31.3
2017-08-08T03:47:55.946Z,31.3
2017-08-08T03:48:54.130Z,31.3
2017-08-08T03:49:54.231Z,31.3
2017-08-08T03:50:56.132Z,31.3
2017-08-08T03:51:56.386Z,31.4
2017-08-08T03:52:54.283Z,31.4
2017-08-08T03:53:54.406Z,31.4
2017-08-08T03:54:56.092Z,31.4
2017-08-08T03:55:54.388Z,31.4
2017-08-08T03:56:57.626Z,31.4
2017-08-08T03:57:56.246Z,31.4
2017-08-08T03:58:54.605Z,31.4
2017-08-08T03:59:56.405Z,31.4
2017-08-08T04:00:54.732Z,31.3
2017-08-08T04:01:56.501Z,31.3
2017-08-08T04:02:54.808Z,31.3
2017-08-08T04:03:56.776Z,31.3
2017-08-08T04:04:54.717Z,31.3
2017-08-08T04:05:54.981Z,31.3
2017-08-08T04:06:56.763Z,31.3
2017-08-08T04:07:55.127Z,31.3
2017-08-08T04:08:55.113Z,31.3
2017-08-08T04:09:54.983Z,31.3
2017-08-08T04:10:55.220Z,31.3
2017-08-08T04:11:56.910Z,31.4
2017-08-08T04:12:58.388Z,31.4
2017-08-08T04:13:55.337Z,31.3
2017-08-08T04:14:55.329Z,31.4
2017-08-08T04:15:55.197Z,31.3
2017-08-08T04:16:55.509Z,31.6
2017-08-08T04:17:57.211Z,31.6
2017-08-08T04:18:55.509Z,31.7
2017-08-08T04:19:57.261Z,31.7
2017-08-08T04:20:55.658Z,31.8
2017-08-08T04:21:55.682Z,31.9
2017-08-08T04:22:58.867Z,32
2017-08-08T04:23:57.477Z,32.2
2017-08-08T04:24:55.817Z,32.4
2017-08-08T04:25:55.705Z,32.7
2017-08-08T04:26:57.945Z,32.9
2017-08-08T04:27:59.344Z,33.1
2017-08-08T04:28:58.009Z,33.4
2017-08-08T04:29:56.084Z,33.6
2017-08-08T04:30:56.104Z,33.7
2017-08-08T04:31:57.855Z,33.9
2017-08-08T04:32:58.071Z,34.1
2017-08-08T04:33:56.233Z,34.2
2017-08-08T04:34:56.033Z,34.3
2017-08-08T04:35:56.327Z,34.4
2017-08-08T04:36:56.420Z,34.2
2017-08-08T04:37:56.214Z,33.8
2017-08-08T04:38:56.485Z,33.5
2017-08-08T04:39:56.339Z,33.7
2017-08-08T04:40:59.724Z,33.7
2017-08-08T04:41:56.435Z,33.8
2017-08-08T04:43:00.515Z,34.2
2017-08-08T04:43:58.520Z,34.8
2017-08-08T04:44:58.466Z,35.1
2017-08-08T04:45:59.953Z,35.5
2017-08-08T04:46:56.915Z,35.6
2017-08-08T04:48:00.037Z,36
2017-08-08T04:48:57.490Z,36.4
2017-08-08T04:49:56.990Z,36.6
2017-08-08T04:50:57.098Z,36.9
2017-08-08T04:51:58.867Z,37.2
2017-08-08T04:52:58.869Z,37.5
2017-08-08T04:53:57.031Z,37.6
2017-08-08T04:54:57.121Z,37.8
2017-08-08T04:56:00.446Z,37.9
2017-08-08T04:56:59.116Z,38.1
2017-08-08T04:57:57.251Z,38.3
2017-08-08T04:59:00.587Z,38.2
2017-08-08T04:59:57.538Z,38.2
2017-08-08T05:01:01.407Z,38.3
2017-08-08T05:01:57.574Z,38.5
2017-08-08T05:03:00.947Z,38.7
2017-08-08T05:04:00.829Z,38.9
2017-08-08T05:04:57.792Z,39
2017-08-08T05:05:59.566Z,39.2
2017-08-08T05:07:00.994Z,39.3
2017-08-08T05:07:57.732Z,39.3
2017-08-08T05:08:57.822Z,39.4
2017-08-08T05:09:58.055Z,39.5
2017-08-08T05:10:58.040Z,39.5
2017-08-08T05:11:58.646Z,39.5
2017-08-08T05:12:57.970Z,39.5
2017-08-08T05:13:58.217Z,39.5
2017-08-08T05:15:01.613Z,39.5
2017-08-08T05:15:59.997Z,39.5
2017-08-08T05:17:00.311Z,39.5
2017-08-08T05:18:00.352Z,39.5
2017-08-08T05:18:58.531Z,39.4
2017-08-08T05:20:00.456Z,39.4
2017-08-08T05:21:01.720Z,39.4
2017-08-08T05:22:01.757Z,39.3
2017-08-08T05:23:02.011Z,39.4
2017-08-08T05:24:01.850Z,39.4
2017-08-08T05:25:00.658Z,39.5
2017-08-08T05:26:02.087Z,39.6
2017-08-08T05:26:58.571Z,39.6
2017-08-08T05:28:00.785Z,39.7
2017-08-08T05:29:02.861Z,39.7
2017-08-08T05:29:58.750Z,39.7
2017-08-08T05:30:59.644Z,39.8
2017-08-08T05:31:58.879Z,39.7
2017-08-08T05:33:02.394Z,39.8
2017-08-08T05:34:01.059Z,39.9
2017-08-08T05:34:59.469Z,40.1
2017-08-08T05:35:59.173Z,40.1
2017-08-08T05:36:59.287Z,40.1
2017-08-08T05:37:59.311Z,40.1
2017-08-08T05:38:59.111Z,40.1
2017-08-08T05:39:59.216Z,40.1
2017-08-08T05:40:59.436Z,40.1
2017-08-08T05:42:02.721Z,40.1
2017-08-08T05:43:02.796Z,40.1
2017-08-08T05:43:59.610Z,40.2
2017-08-08T05:45:01.572Z,40.2
2017-08-08T05:45:59.695Z,40.2
2017-08-08T05:47:03.053Z,40.2
2017-08-08T05:48:01.695Z,40.2
2017-08-08T05:48:59.668Z,40.2
2017-08-08T05:49:59.682Z,40.2
2017-08-08T05:51:01.671Z,40.2
2017-08-08T05:51:59.991Z,40.1
2017-08-08T05:53:00.047Z,39.9
2017-08-08T05:54:03.322Z,39.8
2017-08-08T05:55:00.114Z,39.7
2017-08-08T05:56:02.088Z,39.7
2017-08-08T05:57:02.130Z,39.6
2017-08-08T05:58:00.267Z,39.5
2017-08-08T05:59:00.089Z,39.4
2017-08-08T06:00:00.072Z,39.4
2017-08-08T06:01:00.110Z,39.4
2017-08-08T06:02:05.379Z,39.5
2017-08-08T06:03:02.241Z,39.5
2017-08-08T06:04:00.120Z,39.5
2017-08-08T06:05:02.237Z,39.5
2017-08-08T06:06:00.393Z,39.6
2017-08-08T06:07:03.721Z,39.6
2017-08-08T06:08:00.479Z,39.6
2017-08-08T06:09:00.588Z,39.8
2017-08-08T06:10:04.539Z,39.8
2017-08-08T06:11:01.218Z,39.7
2017-08-08T06:12:00.843Z,39.6
2017-08-08T06:13:00.778Z,39.5
2017-08-08T06:14:04.295Z,39.5
2017-08-08T06:15:01.081Z,39.5
2017-08-08T06:16:01.109Z,39.6
2017-08-08T06:22:01.779Z,39.2
2017-08-08T06:23:04.596Z,39.4
2017-08-08T06:24:04.872Z,39.4
2017-08-08T06:25:01.425Z,39.3
2017-08-08T06:26:01.721Z,39.3
2017-08-08T06:27:02.732Z,39.5
2017-08-08T06:28:01.816Z,39.5
2017-08-08T06:29:02.721Z,39.5
2017-08-08T06:30:03.543Z,39.6
2017-08-08T06:31:01.831Z,39.6
2017-08-08T06:32:02.070Z,39.7
2017-08-08T06:33:05.036Z,39.6
2017-08-08T06:34:02.223Z,39.5
2017-08-08T06:35:03.781Z,39.4
2017-08-08T06:36:05.283Z,39.4
2017-08-08T06:37:04.724Z,39.1
2017-08-08T06:38:03.407Z,39
2017-08-08T06:39:02.850Z,39.1
2017-08-08T06:40:03.211Z,39.1
2017-08-08T06:41:02.430Z,39.2
2017-08-08T06:42:02.532Z,39.3
2017-08-08T06:43:02.386Z,39.3
2017-08-08T06:44:06.931Z,39.3
2017-08-08T06:45:02.488Z,39.4
2017-08-08T06:46:02.816Z,39.4
2017-08-08T06:47:09.186Z,39.4
2017-08-08T06:48:03.752Z,39.3
2017-08-08T06:49:08.093Z,39.4
2017-08-08T06:50:06.087Z,39.3
2017-08-08T06:51:03.155Z,39.2
2017-08-08T06:52:02.914Z,39.2
2017-08-08T06:53:06.279Z,39.1
2017-08-08T06:54:02.742Z,38.9
2017-08-08T06:55:04.857Z,38.8
2017-08-08T06:56:03.008Z,38.8
2017-08-08T06:57:02.793Z,38.8
2017-08-08T06:58:03.400Z,38.9
2017-08-08T06:59:03.130Z,38.8
2017-08-08T07:00:05.147Z,38.9
2017-08-08T07:01:03.760Z,38.8
2017-08-08T07:02:06.640Z,38.9
2017-08-08T07:03:03.725Z,39
2017-08-08T07:04:07.332Z,39.1
2017-08-08T07:05:08.410Z,39.2
2017-08-08T07:06:03.344Z,39.4
2017-08-08T07:07:03.224Z,39.3
2017-08-08T07:08:07.992Z,39.4
2017-08-08T07:09:07.256Z,39.5
2017-08-08T07:10:07.144Z,39.5
2017-08-08T07:11:03.632Z,39.6
2017-08-08T07:12:06.800Z,39.6
2017-08-08T07:13:03.615Z,39.7
2017-08-08T07:14:03.516Z,39.6
2017-08-08T07:15:03.813Z,39.7
2017-08-08T07:16:04.151Z,39.7
2017-08-08T07:17:04.320Z,39.7
2017-08-08T07:18:04.424Z,39.7
2017-08-08T07:19:06.991Z,39.7
2017-08-08T07:20:05.853Z,39.7
2017-08-08T07:21:03.925Z,39.6
2017-08-08T07:22:04.377Z,39.6
2017-08-08T07:23:07.302Z,39.5
2017-08-08T07:24:03.833Z,39.5
2017-08-08T07:25:04.835Z,39.8
2017-08-08T07:26:04.219Z,39.9
2017-08-08T07:27:08.878Z,40
2017-08-08T07:28:07.637Z,40
2017-08-08T07:29:06.205Z,40.2
2017-08-08T07:30:04.182Z,40.4
2017-08-08T07:31:04.815Z,40.5
2017-08-08T07:32:07.590Z,40.7
2017-08-08T07:33:06.272Z,40.7
2017-08-08T07:34:04.855Z,40.8
2017-08-08T07:35:08.305Z,40.8
2017-08-08T07:36:08.507Z,40.9
2017-08-08T07:37:04.773Z,40.9
2017-08-08T07:38:07.998Z,41
2017-08-08T07:39:04.725Z,41
2017-08-08T07:40:07.027Z,41
2017-08-08T07:41:04.886Z,40.9
2017-08-08T07:42:05.349Z,40.8
2017-08-08T07:43:05.166Z,40.8
2017-08-08T07:44:09.571Z,40.8
2017-08-08T07:45:09.865Z,40.8
2017-08-08T07:46:05.412Z,40.9
2017-08-08T07:47:05.787Z,40.9
2017-08-08T07:48:05.817Z,41
2017-08-08T07:49:07.488Z,40.8
2017-08-08T07:50:05.418Z,40.7
2017-08-08T07:51:09.457Z,40.7
2017-08-08T07:52:06.327Z,40.8
2017-08-08T07:53:09.149Z,40.8
2017-08-08T07:54:05.840Z,41
2017-08-08T07:55:05.674Z,41.1
2017-08-08T07:56:07.625Z,41.1
2017-08-08T07:57:07.344Z,41.1
2017-08-08T07:58:06.426Z,41.1
2017-08-08T07:59:06.017Z,40.9
2017-08-08T08:00:07.959Z,40.9
2017-08-08T08:01:10.596Z,40.8
2017-08-08T08:02:05.970Z,40.8
2017-08-08T08:03:06.299Z,40.8
2017-08-08T08:04:06.311Z,40.7
2017-08-08T08:05:06.263Z,40.8
2017-08-08T08:06:09.784Z,40.8
2017-08-08T08:07:09.261Z,40.5
2017-08-08T08:08:10.421Z,40.4
2017-08-08T08:09:10.215Z,40.3
2017-08-08T08:10:06.702Z,40.3
2017-08-08T08:11:10.057Z,40.1
2017-08-08T08:12:06.578Z,40
2017-08-08T08:13:07.396Z,40.1
2017-08-08T08:14:07.334Z,40
2017-08-08T08:15:07.629Z,40
2017-08-08T08:16:06.759Z,40
2017-08-08T08:17:11.211Z,39.9
2017-08-08T08:18:07.189Z,39.8
2017-08-08T08:19:06.965Z,39.7
2017-08-08T08:20:07.041Z,39.6
2017-08-08T08:21:09.239Z,39.5
2017-08-08T08:22:07.052Z,39.5
2017-08-08T08:23:07.106Z,39.6
2017-08-08T08:24:07.414Z,39.7
2017-08-08T08:25:07.180Z,39.8
2017-08-08T08:26:09.433Z,39.9
2017-08-08T08:27:07.575Z,39.9
2017-08-08T08:28:07.577Z,40.1
2017-08-08T08:29:09.474Z,40.1
2017-08-08T08:30:08.766Z,40.1
2017-08-08T08:31:07.677Z,40.2
2017-08-08T08:32:09.623Z,40.3
2017-08-08T08:33:08.521Z,40.5
2017-08-08T08:34:12.311Z,40.5
2017-08-08T08:35:09.613Z,40.5
2017-08-08T08:36:12.509Z,40.6
2017-08-08T08:37:11.776Z,40.7
2017-08-08T08:38:14.046Z,40.8
2017-08-08T08:39:10.291Z,40.9
2017-08-08T08:40:09.837Z,40.9
2017-08-08T08:41:07.987Z,40.8
2017-08-08T08:42:08.733Z,40.8
2017-08-08T08:43:08.926Z,40.9
2017-08-08T08:44:08.363Z,40.9
2017-08-08T08:45:11.965Z,40.9
2017-08-08T08:46:10.266Z,41
2017-08-08T08:47:11.549Z,41
2017-08-08T08:48:10.453Z,41.1
2017-08-08T08:49:08.529Z,41.1
2017-08-08T08:50:11.759Z,41.2
2017-08-08T08:51:10.950Z,41.3
2017-08-08T08:52:08.569Z,41.3
2017-08-08T08:53:11.129Z,41.3
2017-08-08T08:54:11.306Z,41.4
2017-08-08T08:55:08.742Z,41.4
2017-08-08T08:56:08.802Z,41.4
2017-08-08T08:57:13.287Z,41.2
2017-08-08T08:58:08.833Z,41.2
2017-08-08T08:59:08.916Z,41.2
2017-08-08T09:00:12.346Z,41.3
2017-08-08T09:01:09.016Z,41.2
2017-08-08T09:02:09.287Z,41.3
2017-08-08T09:03:14.101Z,41.4
2017-08-08T09:04:09.347Z,41.3
2017-08-08T09:05:09.232Z,41.4
2017-08-08T09:06:09.382Z,41.3
2017-08-08T09:07:13.236Z,41.3
2017-08-08T09:08:12.728Z,41.4
2017-08-08T09:09:13.302Z,41.4
2017-08-08T09:10:11.191Z,41.5
2017-08-08T09:11:11.175Z,41.5
2017-08-08T09:12:11.580Z,41.6
2017-08-08T09:13:14.217Z,41.5
2017-08-08T09:14:10.462Z,41.4
2017-08-08T09:15:13.324Z,41.3
2017-08-08T09:16:12.032Z,41.3
2017-08-08T09:17:11.889Z,41.4
2017-08-08T09:18:11.994Z,41.4
2017-08-08T09:19:11.922Z,41.5
2017-08-08T09:20:13.414Z,41.6
2017-08-08T09:21:12.504Z,41.7
2017-08-08T09:22:14.068Z,41.7
2017-08-08T09:23:12.461Z,41.7
2017-08-08T09:24:13.662Z,41.8
2017-08-08T09:25:10.553Z,41.9
2017-08-08T09:26:10.585Z,41.8
2017-08-08T09:27:10.712Z,41.8
2017-08-08T09:28:13.274Z,41.8
2017-08-08T09:29:10.575Z,41.8
2017-08-08T09:30:10.811Z,41.7
2017-08-08T09:31:10.853Z,41.8
2017-08-08T09:32:10.779Z,41.7
2017-08-08T09:33:14.601Z,41.7
2017-08-08T09:34:10.864Z,41.6
2017-08-08T09:35:10.937Z,41.3
2017-08-08T09:36:14.407Z,41.2
2017-08-08T09:37:11.221Z,41.1
2017-08-08T09:38:15.831Z,41
2017-08-08T09:39:11.384Z,40.8
2017-08-08T09:40:13.308Z,40.7
2017-08-08T09:41:11.555Z,40.7
2017-08-08T09:42:12.575Z,40.7
2017-08-08T09:43:12.744Z,40.7
2017-08-08T09:44:13.601Z,40.7
2017-08-08T09:45:16.476Z,40.9
2017-08-08T09:46:11.509Z,41.1
2017-08-08T09:47:14.868Z,41.1
2017-08-08T09:48:11.587Z,41.1
2017-08-08T09:49:15.196Z,41
2017-08-08T09:50:12.237Z,40.9
2017-08-08T09:51:13.533Z,40.8
2017-08-08T09:52:15.712Z,40.7
2017-08-08T09:53:11.997Z,40.7
2017-08-08T09:54:14.095Z,40.8
2017-08-08T09:55:13.894Z,40.8
2017-08-08T09:56:15.273Z,40.8
2017-08-08T09:57:12.177Z,40.7
2017-08-08T09:58:14.114Z,40.6
2017-08-08T09:59:15.652Z,40.5
2017-08-08T10:00:15.425Z,40.3
2017-08-08T10:01:12.213Z,40.2
2017-08-08T10:02:14.258Z,40.2
2017-08-08T10:03:15.743Z,40.2
2017-08-08T10:04:15.845Z,40
2017-08-08T10:05:15.770Z,40
2017-08-08T10:06:14.775Z,39.9
2017-08-08T10:07:14.592Z,39.8
2017-08-08T10:08:15.516Z,39.9
2017-08-08T10:09:14.237Z,39.9
2017-08-08T10:10:15.034Z,40
2017-08-08T10:11:17.542Z,40
2017-08-08T10:12:17.699Z,39.9
2017-08-08T10:13:17.790Z,39.9
2017-08-08T10:14:13.201Z,39.8
2017-08-08T10:15:14.132Z,39.7
2017-08-08T10:16:14.673Z,39.6
2017-08-08T10:17:13.278Z,39.6
2017-08-08T10:18:14.581Z,39.6
2017-08-08T10:19:17.096Z,39.6
2017-08-08T10:20:17.115Z,39.7
2017-08-08T10:21:15.619Z,39.7
2017-08-08T10:22:14.868Z,39.6
2017-08-08T10:23:13.522Z,39.5
2017-08-08T10:24:16.190Z,39.6
2017-08-08T10:25:13.510Z,39.8
2017-08-08T10:26:16.693Z,40.1
2017-08-08T10:27:14.278Z,40.3
2017-08-08T10:28:16.040Z,40.5
2017-08-08T10:29:16.916Z,40.6
2017-08-08T10:30:18.031Z,40.6
2017-08-08T10:31:16.194Z,40.8
2017-08-08T10:32:17.857Z,40.8
2017-08-08T10:33:15.172Z,40.7
2017-08-08T10:34:18.967Z,40.8
2017-08-08T10:35:17.165Z,40.8
2017-08-08T10:36:17.373Z,40.8
2017-08-08T10:37:15.115Z,40.8
2017-08-08T10:38:14.240Z,40.8
2017-08-08T10:39:16.445Z,40.8
2017-08-08T10:40:18.816Z,40.8
2017-08-08T10:41:14.946Z,40.8
2017-08-08T10:42:18.960Z,40.7
2017-08-08T10:43:14.207Z,40.5
2017-08-08T10:44:18.094Z,40.4
2017-08-08T10:45:14.317Z,40.3
2017-08-08T10:46:15.376Z,40.2
2017-08-08T10:47:17.014Z,40.1
2017-08-08T10:48:18.443Z,40
2017-08-08T10:49:14.438Z,39.9
2017-08-08T10:50:14.543Z,39.8
2017-08-08T10:51:18.005Z,39.6
2017-08-08T10:52:16.590Z,39.4
2017-08-08T10:53:15.585Z,39.4
2017-08-08T10:54:15.892Z,39.3
2017-08-08T10:55:16.629Z,39.2
2017-08-08T10:56:18.682Z,39.2
2017-08-08T10:57:17.422Z,39.1
2017-08-08T10:58:17.366Z,39
2017-08-08T10:59:18.193Z,39
2017-08-08T11:00:14.938Z,38.9
2017-08-08T11:01:16.090Z,38.9
2017-08-08T11:02:15.170Z,38.8
2017-08-08T11:03:15.492Z,38.7
2017-08-08T11:04:15.324Z,38.7
2017-08-08T11:05:15.044Z,38.7
2017-08-08T11:06:15.797Z,38.7
2017-08-08T11:07:15.150Z,38.8
2017-08-08T11:08:15.197Z,38.7
2017-08-08T11:09:18.942Z,38.7
2017-08-08T11:10:15.422Z,38.8
2017-08-08T11:11:17.990Z,38.8
2017-08-08T11:12:15.417Z,38.7
2017-08-08T11:13:19.728Z,38.7
2017-08-08T11:14:15.638Z,38.7
2017-08-08T11:15:15.927Z,38.7
2017-08-08T11:16:19.737Z,38.7
2017-08-08T11:17:19.316Z,38.7
2017-08-08T11:18:17.371Z,38.7
2017-08-08T11:19:15.890Z,38.8
2017-08-08T11:23:50.108Z,38.7
2017-08-08T11:24:51.729Z,38.8
2017-08-08T11:25:47.797Z,38.9
2017-08-08T11:26:51.838Z,38.8
2017-08-08T11:27:54.527Z,38.9
2017-08-08T11:28:50.782Z,38.9
2017-08-08T11:29:50.018Z,39
2017-08-08T11:30:48.727Z,39
2017-08-08T11:31:47.965Z,39
2017-08-08T11:32:52.314Z,39.1
2017-08-08T11:33:50.421Z,39.2
2017-08-08T11:34:52.617Z,39.2
2017-08-08T11:35:50.107Z,39.2
2017-08-08T11:36:51.873Z,39.3
2017-08-08T11:37:51.834Z,39.3
2017-08-08T11:38:51.699Z,39.3
2017-08-08T11:39:48.316Z,39.4
2017-08-08T11:40:50.361Z,39.5
2017-08-08T11:41:50.676Z,39.5
2017-08-08T11:42:50.592Z,39.5
2017-08-08T11:43:52.651Z,39.5
2017-08-08T11:44:50.753Z,39.5
2017-08-08T11:45:50.362Z,39.5
2017-08-08T11:46:52.263Z,39.5
2017-08-08T11:47:55.511Z,39.6
2017-08-08T11:48:50.015Z,39.6
2017-08-08T11:49:51.755Z,39.7
2017-08-08T11:50:49.221Z,39.8
2017-08-08T11:51:51.949Z,39.9
2017-08-08T11:52:50.787Z,40
2017-08-08T11:53:53.006Z,40.1
2017-08-08T11:54:49.035Z,40.2
2017-08-08T11:55:49.884Z,40.2
2017-08-08T11:56:52.451Z,40.3
2017-08-08T11:57:52.658Z,40.3
2017-08-08T11:58:51.388Z,40.4
2017-08-08T11:59:50.489Z,40.5
2017-08-08T12:00:51.488Z,40.6
2017-08-08T12:01:52.225Z,40.6
2017-08-08T12:02:49.565Z,40.7
2017-08-08T12:03:49.839Z,40.8
2017-08-08T12:04:49.876Z,40.8
2017-08-08T12:05:51.668Z,40.9
2017-08-08T12:06:51.673Z,40.9
2017-08-08T12:07:52.440Z,41
2017-08-08T12:08:49.741Z,41
2017-08-08T12:09:49.734Z,41
2017-08-08T12:10:50.153Z,41
2017-08-08T12:11:53.006Z,41
2017-08-08T12:12:52.464Z,41.1
2017-08-08T12:13:49.920Z,41
2017-08-08T12:14:50.112Z,40.9
2017-08-08T12:15:50.061Z,40.9
2017-08-08T12:16:52.381Z,40.9
2017-08-08T12:17:50.168Z,40.9
2017-08-08T12:18:53.552Z,40.8
2017-08-08T12:19:50.540Z,40.8
2017-08-08T12:20:50.371Z,40.8
2017-08-08T12:21:53.566Z,40.8
2017-08-08T12:22:51.028Z,40.7
2017-08-08T12:23:54.515Z,40.7
2017-08-08T12:24:54.661Z,40.7
2017-08-08T12:25:52.780Z,40.7
2017-08-08T12:26:53.128Z,40.7
2017-08-08T12:27:50.852Z,40.7
2017-08-08T12:28:54.958Z,40.7
2017-08-08T12:29:57.950Z,40.7
2017-08-08T12:30:55.561Z,40.7
2017-08-08T12:31:53.506Z,40.8
2017-08-08T12:32:54.294Z,40.8
2017-08-08T12:33:51.454Z,40.7
2017-08-08T12:34:51.807Z,40.7
2017-08-08T12:35:56.348Z,40.7
2017-08-08T12:36:53.249Z,40.8
2017-08-08T12:37:51.064Z,40.8
2017-08-08T12:38:53.280Z,40.8
2017-08-08T12:39:53.970Z,40.8
2017-08-08T12:40:52.449Z,40.8
2017-08-08T12:41:56.809Z,40.8
2017-08-08T12:42:55.554Z,40.8
2017-08-08T12:43:55.136Z,40.8
2017-08-08T12:44:56.901Z,40.9
2017-08-08T12:45:51.437Z,40.9
2017-08-08T12:46:52.675Z,40.9
2017-08-08T12:47:56.714Z,40.9
2017-08-08T12:48:53.925Z,40.9
2017-08-08T12:49:52.348Z,40.9
2017-08-08T12:50:52.070Z,41
2017-08-08T12:51:55.897Z,41
2017-08-08T12:52:55.598Z,41
2017-08-08T12:53:54.150Z,40.9
2017-08-08T12:54:52.723Z,41
2017-08-08T12:55:58.043Z,41
2017-08-08T12:56:53.906Z,41
2017-08-08T12:57:56.199Z,41.1
2017-08-08T12:58:53.308Z,41.2
2017-08-08T12:59:58.974Z,41.2
2017-08-08T13:00:58.335Z,41.2
2017-08-08T13:01:58.457Z,41.3
2017-08-08T13:03:03.044Z,41.3
2017-08-08T13:04:03.354Z,41.3
2017-08-08T13:05:00.643Z,41.4
2017-08-08T13:05:59.629Z,41.4
2017-08-08T13:07:00.606Z,41.4
2017-08-08T13:08:01.943Z,41.4
2017-08-08T13:08:58.881Z,41.4
2017-08-08T13:10:02.556Z,41.5
2017-08-08T13:10:58.505Z,41.5
2017-08-08T13:12:00.134Z,41.4
2017-08-08T13:13:03.478Z,41.5
2017-08-08T13:13:59.310Z,41.5
2017-08-08T13:15:02.187Z,41.5
2017-08-08T13:15:59.654Z,41.5
2017-08-08T13:17:01.674Z,41.6
2017-08-08T13:18:02.777Z,41.7
2017-08-08T13:19:03.265Z,41.6
2017-08-08T13:19:59.620Z,41.7
2017-08-08T13:20:59.553Z,41.7
2017-08-08T13:22:01.899Z,41.7
2017-08-08T13:23:01.670Z,41.7
2017-08-08T13:24:04.397Z,41.7
2017-08-08T13:25:00.472Z,41.8
2017-08-08T13:26:01.063Z,41.9
2017-08-08T13:27:03.068Z,41.9
2017-08-08T13:28:02.654Z,42
2017-08-08T13:28:59.068Z,42.1
2017-08-08T13:29:59.889Z,42.1
2017-08-08T13:31:00.199Z,42.2